createdAt,value
2018-02-05T00:00:27.296Z,87.49
2018-02-05T00:01:08.689Z,87.87
2018-02-05T00:01:50.065Z,87.39
2018-02-05T00:02:30.652Z,87.3
2018-02-05T00:03:11.148Z,87.96
2018-02-05T00:03:51.729Z,87.87
2018-02-05T00:04:32.302Z,87.82
2018-02-05T00:05:12.803Z,87.72
2018-02-05T00:05:56.351Z,87.82
2018-02-05T00:06:36.883Z,87.72
2018-02-05T00:07:17.473Z,87.2
2018-02-05T00:07:58.305Z,87.2
2018-02-05T00:08:40.251Z,86.44
2018-02-05T00:09:20.773Z,87.01
2018-02-05T00:10:01.321Z,87.01
2018-02-05T00:10:41.834Z,86.54
2018-02-05T00:11:22.395Z,86.82
2018-02-05T00:12:02.951Z,87.11
2018-02-05T00:12:45.372Z,87.3
2018-02-05T00:13:26.044Z,87.58
2018-02-05T00:14:06.574Z,87.3
2018-02-05T00:14:47.133Z,87.3
2018-02-05T00:15:27.672Z,87.2
2018-02-05T00:16:08.633Z,87.2
2018-02-05T00:16:50.612Z,87.3
2018-02-05T00:17:31.164Z,87.11
2018-02-05T00:18:11.714Z,87.01
2018-02-05T00:18:52.266Z,87.43
2018-02-05T00:19:32.812Z,87.87
2018-02-05T00:20:16.857Z,87.68
2018-02-05T00:20:57.373Z,87.68
2018-02-05T00:21:37.933Z,87.68
2018-02-05T00:22:20.295Z,87.53
2018-02-05T00:23:00.885Z,87.87
2018-02-05T00:23:41.449Z,88.15
2018-02-05T00:24:21.988Z,87.91
2018-02-05T00:25:02.512Z,87.77
2018-02-05T00:25:43.072Z,87.2
2018-02-05T00:26:24.346Z,87.39
2018-02-05T00:27:05.855Z,87.2
2018-02-05T00:27:47.226Z,87.39
2018-02-05T00:28:27.914Z,87.77
2018-02-05T00:29:10.243Z,87.96
2018-02-05T00:29:50.993Z,87.96
2018-02-05T00:30:31.579Z,87.96
2018-02-05T00:31:12.121Z,87.58
2018-02-05T00:31:52.747Z,87.58
2018-02-05T00:32:33.217Z,88.15
2018-02-05T00:33:16.868Z,87.96
2018-02-05T00:34:00.249Z,88.06
2018-02-05T00:34:40.817Z,88.24
2018-02-05T00:35:21.479Z,88.06
2018-02-05T00:36:02.082Z,88.15
2018-02-05T00:36:42.822Z,87.49
2018-02-05T00:37:23.212Z,87.96
2018-02-05T00:38:05.103Z,87.96
2018-02-05T00:38:45.665Z,87.87
2018-02-05T00:39:26.192Z,87.39
2018-02-05T00:40:06.731Z,87.96
2018-02-05T00:40:47.311Z,87.96
2018-02-05T00:41:27.924Z,88.06
2018-02-05T00:42:09.768Z,87.96
2018-02-05T00:42:50.524Z,87.68
2018-02-05T00:43:31.046Z,88.06
2018-02-05T00:44:11.589Z,87.49
2018-02-05T00:44:52.182Z,87.96
2018-02-05T00:45:33.361Z,87.96
2018-02-05T00:46:15.379Z,87.96
2018-02-05T00:46:55.929Z,88.48
2018-02-05T00:47:36.715Z,88.2
2018-02-05T00:48:17.239Z,88.96
2018-02-05T00:48:57.842Z,89.06
2018-02-05T00:49:40.356Z,89.43
2018-02-05T00:50:21.691Z,89.25
2018-02-05T00:51:02.225Z,89.43
2018-02-05T00:51:42.800Z,89.53
2018-02-05T00:52:23.350Z,89.43
2018-02-05T00:53:05.440Z,89.58
2018-02-05T00:53:50.029Z,89.29
2018-02-05T00:54:30.801Z,89.1
2018-02-05T00:55:11.360Z,88.81
2018-02-05T00:55:52.042Z,88.53
2018-02-05T00:56:32.580Z,88.87
2018-02-05T00:57:13.113Z,89.1
2018-02-05T00:57:55.537Z,89.1
2018-02-05T00:58:36.104Z,88.87
2018-02-05T00:59:16.635Z,89.25
2018-02-05T00:59:57.173Z,89.15
2018-02-05T01:00:37.733Z,89.62
2018-02-05T01:01:18.298Z,89.72
2018-02-05T01:02:00.453Z,90.1
2018-02-05T01:02:41.106Z,90.19
2018-02-05T01:03:21.667Z,90.57
2018-02-05T01:04:02.487Z,90
2018-02-05T01:06:20.040Z,89.58
2018-02-05T01:07:05.080Z,89.76
2018-02-05T01:09:11.207Z,89.25
2018-02-05T01:09:51.817Z,89.43
2018-02-05T01:10:32.376Z,90.1
2018-02-05T01:11:12.878Z,90.48
2018-02-05T01:11:53.467Z,90.33
2018-02-05T01:12:35.233Z,90.24
2018-02-05T01:13:15.695Z,89.95
2018-02-05T01:13:56.244Z,89.67
2018-02-05T01:14:36.789Z,89.81
2018-02-05T01:15:17.291Z,89.67
2018-02-05T01:15:57.866Z,89.29
2018-02-05T01:16:39.846Z,89.29
2018-02-05T01:17:21.534Z,89.53
2018-02-05T01:18:02.153Z,89.72
2018-02-05T01:18:42.644Z,89.67
2018-02-05T01:19:23.202Z,89.43
2018-02-05T01:21:44.226Z,90.38
2018-02-05T01:22:24.702Z,90.48
2018-02-05T01:23:05.216Z,90.48
2018-02-05T01:23:45.729Z,91.33
2018-02-05T01:24:26.302Z,90.95
2018-02-05T01:25:06.823Z,90.76
2018-02-05T01:25:47.327Z,90.67
2018-02-05T01:26:27.882Z,90.29
2018-02-05T01:27:08.480Z,90.43
2018-02-05T01:27:48.978Z,90.43
2018-02-05T01:28:29.533Z,90.14
2018-02-05T01:29:10.115Z,90.24
2018-02-05T01:29:50.601Z,90.62
2018-02-05T01:30:31.138Z,89.95
2018-02-05T01:31:11.686Z,89.48
2018-02-05T01:31:52.243Z,89.48
2018-02-05T01:32:32.871Z,89.58
2018-02-05T01:33:13.390Z,89.67
2018-02-05T01:33:53.958Z,89.53
2018-02-05T01:34:34.475Z,89.58
2018-02-05T01:35:15.056Z,89.58
2018-02-05T01:35:55.640Z,89.58
2018-02-05T01:36:36.258Z,90
2018-02-05T01:37:17.115Z,89.86
2018-02-05T01:37:57.663Z,89.86
2018-02-05T01:38:38.173Z,90.05
2018-02-05T01:39:18.704Z,89.95
2018-02-05T01:39:59.241Z,89.58
2018-02-05T01:40:39.848Z,89.39
2018-02-05T01:41:20.353Z,89.86
2018-02-05T01:42:00.953Z,89.86
2018-02-05T01:42:41.414Z,89.67
2018-02-05T01:43:21.941Z,89.29
2018-02-05T01:44:02.512Z,88.81
2018-02-05T01:44:43.107Z,89.58
2018-02-05T01:45:23.659Z,89.29
2018-02-05T01:46:04.217Z,89.86
2018-02-05T01:46:44.746Z,89.29
2018-02-05T01:47:25.287Z,89.86
2018-02-05T01:48:05.827Z,90.24
2018-02-05T01:48:46.433Z,90.19
2018-02-05T01:49:26.898Z,89.95
2018-02-05T01:50:07.438Z,90.43
2018-02-05T01:50:47.976Z,90.62
2018-02-05T01:51:28.530Z,90.52
2018-02-05T01:52:09.035Z,90.24
2018-02-05T01:52:49.542Z,90.24
2018-02-05T01:53:30.083Z,90.52
2018-02-05T01:54:10.621Z,90.14
2018-02-05T01:54:51.141Z,89.29
2018-02-05T01:55:31.704Z,89.1
2018-02-05T01:56:12.197Z,88.81
2018-02-05T01:56:52.737Z,89.1
2018-02-05T01:57:33.393Z,89.76
2018-02-05T01:58:13.879Z,90.05
2018-02-05T01:58:54.380Z,89.86
2018-02-05T01:59:34.887Z,89.95
2018-02-05T02:00:15.426Z,89.95
2018-02-05T02:00:55.960Z,89.58
2018-02-05T02:01:36.496Z,89.86
2018-02-05T02:02:17.065Z,89.76
2018-02-05T02:02:57.580Z,89.48
2018-02-05T02:03:38.138Z,89.48
2018-02-05T02:04:18.713Z,89.86
2018-02-05T02:04:59.227Z,90.05
2018-02-05T02:05:39.788Z,89.67
2018-02-05T02:06:20.334Z,89.76
2018-02-05T02:07:01.195Z,89.48
2018-02-05T02:07:41.713Z,89.48
2018-02-05T02:08:22.275Z,88.91
2018-02-05T02:09:02.847Z,88.91
2018-02-05T02:09:43.366Z,89.29
2018-02-05T02:10:23.949Z,89
2018-02-05T02:11:04.480Z,88.72
2018-02-05T02:11:45.076Z,89.29
2018-02-05T02:12:25.655Z,89.29
2018-02-05T02:13:06.180Z,89.81
2018-02-05T02:13:46.698Z,90.48
2018-02-05T02:14:27.256Z,90.38
2018-02-05T02:15:07.814Z,90.48
2018-02-05T02:15:48.354Z,90.57
2018-02-05T02:16:28.949Z,90.48
2018-02-05T02:17:09.567Z,90.81
2018-02-05T02:17:50.097Z,90.43
2018-02-05T02:18:30.635Z,90.14
2018-02-05T02:19:11.182Z,90.24
2018-02-05T02:19:51.758Z,90.33
2018-02-05T02:20:32.252Z,90.33
2018-02-05T02:21:12.800Z,90.33
2018-02-05T02:21:53.298Z,90.52
2018-02-05T02:22:33.822Z,90.24
2018-02-05T02:23:14.347Z,90.52
2018-02-05T02:23:54.914Z,90.14
2018-02-05T02:24:35.421Z,90.14
2018-02-05T02:25:15.958Z,90.1
2018-02-05T02:25:56.517Z,90.29
2018-02-05T02:26:37.013Z,90.19
2018-02-05T02:27:17.557Z,90.14
2018-02-05T02:27:58.085Z,90.43
2018-02-05T02:28:38.604Z,89.86
2018-02-05T02:29:19.127Z,89.48
2018-02-05T02:29:59.738Z,89.58
2018-02-05T02:30:40.323Z,89.48
2018-02-05T02:31:20.847Z,89.48
2018-02-05T02:32:01.549Z,89.29
2018-02-05T02:32:42.068Z,89.29
2018-02-05T02:33:22.683Z,89.39
2018-02-05T02:34:03.180Z,89.53
2018-02-05T02:34:43.715Z,89.76
2018-02-05T02:35:24.249Z,89.86
2018-02-05T02:36:04.809Z,90.05
2018-02-05T02:36:45.355Z,89.76
2018-02-05T02:37:25.885Z,90.14
2018-02-05T02:38:06.415Z,89.58
2018-02-05T02:38:46.953Z,89.48
2018-02-05T02:39:27.523Z,90
2018-02-05T02:40:08.060Z,90.05
2018-02-05T02:40:48.558Z,89.67
2018-02-05T02:41:29.120Z,89.39
2018-02-05T02:42:10.668Z,89.67
2018-02-05T02:42:51.893Z,89.58
2018-02-05T02:43:32.433Z,89.58
2018-02-05T02:44:13.009Z,89.29
2018-02-05T02:44:53.618Z,89.58
2018-02-05T02:45:34.104Z,89.48
2018-02-05T02:46:14.663Z,89.76
2018-02-05T02:46:55.125Z,89.48
2018-02-05T02:47:35.664Z,89.86
2018-02-05T02:48:16.223Z,90.05
2018-02-05T02:48:56.940Z,89.95
2018-02-05T02:49:37.510Z,89.86
2018-02-05T02:50:18.033Z,89.39
2018-02-05T02:50:58.623Z,89.29
2018-02-05T02:51:39.124Z,89.29
2018-02-05T02:52:19.674Z,89.29
2018-02-05T02:53:00.211Z,89.67
2018-02-05T02:53:40.802Z,89.86
2018-02-05T02:54:23.035Z,89.58
2018-02-05T02:55:03.584Z,89.86
2018-02-05T02:55:44.102Z,89.58
2018-02-05T02:56:24.665Z,89.48
2018-02-05T02:57:05.847Z,89.67
2018-02-05T02:57:47.907Z,89.81
2018-02-05T02:58:30.094Z,90.29
2018-02-05T02:59:10.646Z,90
2018-02-05T02:59:51.218Z,90.33
2018-02-05T03:00:32.492Z,90.38
2018-02-05T03:01:13.017Z,90.43
2018-02-05T03:01:53.607Z,90.14
2018-02-05T03:02:34.130Z,89.67
2018-02-05T03:03:14.688Z,89.76
2018-02-05T03:03:55.232Z,89.25
2018-02-05T03:04:35.856Z,89.43
2018-02-05T03:05:16.341Z,89.62
2018-02-05T03:05:56.952Z,89.25
2018-02-05T03:06:37.499Z,89.43
2018-02-05T03:07:18.021Z,89.06
2018-02-05T03:07:58.501Z,88.96
2018-02-05T03:08:39.037Z,88.77
2018-02-05T03:09:19.566Z,88.96
2018-02-05T03:10:00.096Z,89.43
2018-02-05T03:10:40.671Z,88.87
2018-02-05T03:11:21.182Z,88.77
2018-02-05T03:12:01.761Z,88.68
2018-02-05T03:12:42.295Z,88.87
2018-02-05T03:13:22.786Z,88.77
2018-02-05T03:14:03.404Z,88.96
2018-02-05T03:14:43.923Z,89.15
2018-02-05T03:15:24.436Z,88.58
2018-02-05T03:16:04.982Z,88.87
2018-02-05T03:16:45.490Z,88.96
2018-02-05T03:17:26.056Z,88.96
2018-02-05T03:18:06.576Z,88.87
2018-02-05T03:18:47.334Z,88.87
2018-02-05T03:19:27.940Z,88.87
2018-02-05T03:20:08.489Z,89.06
2018-02-05T03:20:48.950Z,89.06
2018-02-05T03:21:29.516Z,89.72
2018-02-05T03:22:10.054Z,89.53
2018-02-05T03:22:50.587Z,89.43
2018-02-05T03:23:31.206Z,88.58
2018-02-05T03:24:11.719Z,88.77
2018-02-05T03:24:52.312Z,88.87
2018-02-05T03:25:32.872Z,89.25
2018-02-05T03:26:13.352Z,89.62
2018-02-05T03:26:53.928Z,88.58
2018-02-05T03:27:34.451Z,88.58
2018-02-05T03:28:14.994Z,88.96
2018-02-05T03:28:55.552Z,88.68
2018-02-05T03:29:36.143Z,88.29
2018-02-05T03:30:16.651Z,88.39
2018-02-05T03:30:57.182Z,88.1
2018-02-05T03:31:37.939Z,88.87
2018-02-05T03:32:18.568Z,88.39
2018-02-05T03:32:59.018Z,87.92
2018-02-05T03:33:41.312Z,87.54
2018-02-05T03:34:21.867Z,88.1
2018-02-05T03:35:02.443Z,88.1
2018-02-05T03:35:42.986Z,88.01
2018-02-05T03:36:23.518Z,88.25
2018-02-05T03:37:04.161Z,88.82
2018-02-05T03:37:44.628Z,88.82
2018-02-05T03:38:25.148Z,88.48
2018-02-05T03:39:05.740Z,87.82
2018-02-05T03:39:46.287Z,88.29
2018-02-05T03:40:27.871Z,88.29
2018-02-05T03:41:09.004Z,88.29
2018-02-05T03:41:49.955Z,88.58
2018-02-05T03:42:30.503Z,87.92
2018-02-05T03:43:11.822Z,88.2
2018-02-05T03:43:53.293Z,88.29
2018-02-05T03:44:33.863Z,88.96
2018-02-05T03:45:14.364Z,88.87
2018-02-05T03:45:55.067Z,88.1
2018-02-05T03:46:35.625Z,88.48
2018-02-05T03:47:16.184Z,88.29
2018-02-05T03:47:56.757Z,88.48
2018-02-05T03:48:37.302Z,88.01
2018-02-05T03:49:17.878Z,88.44
2018-02-05T03:49:58.514Z,88.54
2018-02-05T03:50:39.049Z,88.87
2018-02-05T03:51:20.143Z,88.06
2018-02-05T03:52:00.704Z,88.44
2018-02-05T03:52:41.312Z,88.2
2018-02-05T03:53:21.850Z,88.16
2018-02-05T03:54:02.328Z,88.48
2018-02-05T03:54:42.942Z,88.35
2018-02-05T03:55:23.412Z,88.44
2018-02-05T03:56:03.961Z,88.2
2018-02-05T03:56:44.485Z,87.92
2018-02-05T03:57:25.031Z,87.97
2018-02-05T03:58:05.609Z,87.92
2018-02-05T03:58:46.125Z,87.92
2018-02-05T03:59:26.660Z,87.63
2018-02-05T04:00:07.334Z,87.73
2018-02-05T04:00:47.851Z,87.82
2018-02-05T04:01:28.373Z,87.35
2018-02-05T04:02:08.939Z,87.45
2018-02-05T04:02:49.438Z,87.45
2018-02-05T04:03:29.985Z,87.82
2018-02-05T04:04:10.549Z,87.82
2018-02-05T04:04:51.022Z,88.1
2018-02-05T04:05:31.541Z,87.92
2018-02-05T04:06:12.114Z,87.73
2018-02-05T04:06:52.661Z,87.97
2018-02-05T04:07:33.180Z,87.68
2018-02-05T04:08:13.759Z,88.16
2018-02-05T04:08:54.289Z,88.01
2018-02-05T04:09:34.850Z,87.54
2018-02-05T04:10:15.457Z,87.92
2018-02-05T04:10:55.949Z,87.92
2018-02-05T04:11:36.493Z,86.87
2018-02-05T04:12:17.018Z,87.06
2018-02-05T04:12:57.580Z,86.97
2018-02-05T04:13:38.107Z,87.25
2018-02-05T04:14:18.640Z,87.06
2018-02-05T04:14:59.180Z,87.06
2018-02-05T04:15:39.731Z,87.25
2018-02-05T04:16:20.275Z,86.97
2018-02-05T04:17:00.796Z,86.97
2018-02-05T04:17:41.368Z,87.35
2018-02-05T04:18:21.886Z,87.54
2018-02-05T04:19:02.488Z,86.97
2018-02-05T04:19:42.997Z,86.78
2018-02-05T04:20:23.572Z,87.35
2018-02-05T04:21:04.111Z,86.97
2018-02-05T04:21:44.676Z,87.06
2018-02-05T04:22:25.194Z,87.25
2018-02-05T04:23:05.754Z,87.92
2018-02-05T04:23:46.231Z,88.01
2018-02-05T04:24:26.773Z,88.1
2018-02-05T04:25:07.397Z,87.35
2018-02-05T04:25:47.930Z,87.25
2018-02-05T04:26:28.505Z,86.87
2018-02-05T04:27:08.988Z,86.87
2018-02-05T04:27:49.550Z,87.45
2018-02-05T04:28:30.094Z,86.87
2018-02-05T04:29:10.576Z,86.97
2018-02-05T04:29:51.153Z,87.25
2018-02-05T04:30:31.851Z,86.97
2018-02-05T04:31:12.414Z,87.25
2018-02-05T04:31:52.953Z,87.06
2018-02-05T04:32:33.478Z,87.16
2018-02-05T04:33:14.019Z,87.16
2018-02-05T04:33:54.552Z,86.97
2018-02-05T04:34:35.123Z,87.35
2018-02-05T04:35:15.650Z,86.97
2018-02-05T04:35:56.182Z,87.45
2018-02-05T04:36:36.705Z,86.87
2018-02-05T04:37:17.252Z,86.59
2018-02-05T04:37:57.742Z,86.68
2018-02-05T04:38:38.341Z,86.78
2018-02-05T04:39:19.123Z,87.25
2018-02-05T04:39:59.749Z,87.16
2018-02-05T04:40:40.297Z,86.97
2018-02-05T04:41:20.809Z,86.59
2018-02-05T04:42:01.345Z,86.11
2018-02-05T04:42:41.892Z,86.02
2018-02-05T04:43:22.453Z,86.02
2018-02-05T04:44:03.031Z,86.07
2018-02-05T04:44:43.610Z,86.26
2018-02-05T04:45:24.101Z,86.83
2018-02-05T04:46:04.661Z,87.12
2018-02-05T04:46:45.401Z,87.4
2018-02-05T04:47:25.955Z,86.93
2018-02-05T04:48:06.515Z,86.97
2018-02-05T04:48:47.072Z,86.93
2018-02-05T04:49:27.604Z,87.02
2018-02-05T04:50:08.129Z,86.74
2018-02-05T04:50:48.644Z,87.3
2018-02-05T04:51:29.224Z,87.4
2018-02-05T04:52:09.722Z,87.3
2018-02-05T04:52:50.310Z,87.02
2018-02-05T04:53:30.854Z,87.12
2018-02-05T04:54:11.447Z,86.74
2018-02-05T04:54:51.950Z,87.21
2018-02-05T04:55:32.478Z,87.12
2018-02-05T04:56:13.044Z,87.02
2018-02-05T04:56:53.611Z,86.87
2018-02-05T04:57:34.152Z,87.06
2018-02-05T04:58:14.712Z,87.25
2018-02-05T04:58:55.219Z,86.87
2018-02-05T04:59:35.766Z,86.78
2018-02-05T05:00:16.308Z,86.78
2018-02-05T05:00:56.809Z,86.97
2018-02-05T05:01:37.386Z,86.83
2018-02-05T05:02:17.886Z,87.25
2018-02-05T05:02:58.412Z,87.35
2018-02-05T05:03:38.997Z,87.4
2018-02-05T05:04:19.470Z,87.3
2018-02-05T05:05:00.051Z,86.83
2018-02-05T05:05:40.578Z,86.78
2018-02-05T05:06:21.113Z,87.06
2018-02-05T05:07:01.668Z,86.4
2018-02-05T05:07:42.181Z,86.49
2018-02-05T05:08:22.678Z,86.93
2018-02-05T05:09:03.204Z,86.83
2018-02-05T05:09:43.731Z,87.06
2018-02-05T05:10:24.284Z,86.74
2018-02-05T05:11:04.823Z,87.25
2018-02-05T05:11:45.355Z,86.87
2018-02-05T05:12:25.855Z,86.87
2018-02-05T05:13:06.463Z,86.87
2018-02-05T05:13:47.009Z,86.87
2018-02-05T05:14:27.530Z,86.78
2018-02-05T05:15:08.116Z,86.49
2018-02-05T05:15:48.624Z,86.45
2018-02-05T05:16:29.210Z,86.4
2018-02-05T05:17:09.818Z,86.59
2018-02-05T05:17:50.382Z,85.74
2018-02-05T05:18:30.918Z,86.4
2018-02-05T05:19:11.407Z,86.11
2018-02-05T05:19:51.993Z,86.11
2018-02-05T05:20:32.501Z,86.59
2018-02-05T05:21:13.049Z,86.74
2018-02-05T05:21:53.646Z,86.74
2018-02-05T05:22:34.467Z,86.68
2018-02-05T05:23:15.048Z,87.06
2018-02-05T05:23:55.594Z,86.64
2018-02-05T05:24:36.143Z,86.59
2018-02-05T05:25:16.658Z,86.87
2018-02-05T05:25:57.193Z,86.97
2018-02-05T05:26:37.737Z,87.16
2018-02-05T05:27:18.301Z,86.97
2018-02-05T05:27:58.866Z,86.74
2018-02-05T05:28:39.330Z,86.74
2018-02-05T05:29:19.885Z,86.21
2018-02-05T05:30:00.403Z,86.68
2018-02-05T05:30:40.949Z,86.59
2018-02-05T05:31:21.530Z,87.16
2018-02-05T05:32:02.070Z,87.06
2018-02-05T05:32:42.591Z,86.97
2018-02-05T05:33:23.281Z,86.49
2018-02-05T05:34:03.873Z,86.4
2018-02-05T05:34:44.446Z,86.49
2018-02-05T05:35:24.990Z,86.45
2018-02-05T05:36:05.513Z,86.16
2018-02-05T05:36:46.142Z,86.49
2018-02-05T05:37:26.571Z,86.97
2018-02-05T05:38:07.124Z,86.78
2018-02-05T05:38:47.677Z,86.78
2018-02-05T05:39:28.321Z,86.78
2018-02-05T05:40:08.917Z,86.59
2018-02-05T05:40:49.407Z,86.4
2018-02-05T05:41:30.009Z,86.78
2018-02-05T05:42:11.242Z,86.49
2018-02-05T05:42:51.078Z,86.3
2018-02-05T05:43:31.648Z,86.49
2018-02-05T05:44:12.197Z,86.55
2018-02-05T05:44:52.755Z,86.55
2018-02-05T05:45:33.392Z,86.68
2018-02-05T05:46:13.938Z,86.83
2018-02-05T05:46:54.513Z,86.93
2018-02-05T05:47:35.078Z,87.02
2018-02-05T05:48:15.632Z,86.83
2018-02-05T05:48:56.173Z,86.93
2018-02-05T05:49:36.679Z,86.74
2018-02-05T05:50:17.310Z,86.83
2018-02-05T05:50:57.811Z,86.55
2018-02-05T05:51:38.392Z,86.83
2018-02-05T05:52:18.932Z,86.55
2018-02-05T05:52:59.426Z,87.12
2018-02-05T05:53:39.948Z,87.21
2018-02-05T05:54:20.516Z,87.12
2018-02-05T05:55:01.045Z,87.12
2018-02-05T05:55:41.543Z,87.12
2018-02-05T05:56:22.090Z,86.93
2018-02-05T05:57:02.585Z,87.12
2018-02-05T05:57:43.126Z,86.83
2018-02-05T05:58:23.708Z,86.93
2018-02-05T05:59:04.270Z,86.93
2018-02-05T05:59:44.827Z,87.3
2018-02-05T06:00:25.403Z,87.59
2018-02-05T06:01:05.913Z,87.59
2018-02-05T06:01:46.484Z,86.83
2018-02-05T06:02:26.970Z,87.02
2018-02-05T06:03:07.555Z,87.12
2018-02-05T06:03:48.029Z,86.83
2018-02-05T06:04:28.554Z,87.4
2018-02-05T06:05:09.120Z,87.12
2018-02-05T06:05:49.716Z,87.02
2018-02-05T06:06:30.380Z,87.21
2018-02-05T06:07:10.896Z,87.3
2018-02-05T06:07:51.475Z,87.12
2018-02-05T06:08:32.046Z,86.83
2018-02-05T06:09:12.635Z,87.12
2018-02-05T06:09:53.170Z,87.16
2018-02-05T06:10:33.690Z,86.97
2018-02-05T06:11:14.886Z,87.12
2018-02-05T06:11:55.416Z,87.16
2018-02-05T06:12:35.906Z,87.25
2018-02-05T06:13:16.427Z,87.16
2018-02-05T06:13:56.946Z,87.02
2018-02-05T06:14:37.463Z,86.83
2018-02-05T06:15:18.017Z,86.93
2018-02-05T06:15:58.642Z,86.74
2018-02-05T06:16:39.269Z,86.55
2018-02-05T06:17:21.153Z,87.21
2018-02-05T06:18:01.655Z,87.21
2018-02-05T06:18:42.238Z,87.21
2018-02-05T06:19:22.794Z,87.12
2018-02-05T06:20:03.283Z,87.02
2018-02-05T06:20:43.871Z,87.02
2018-02-05T06:21:24.607Z,87.02
2018-02-05T06:22:05.130Z,86.74
2018-02-05T06:22:45.673Z,86.83
2018-02-05T06:23:26.202Z,86.93
2018-02-05T06:24:06.765Z,87.4
2018-02-05T06:24:47.258Z,86.83
2018-02-05T06:25:27.837Z,87.49
2018-02-05T06:26:08.425Z,88.06
2018-02-05T06:26:49.084Z,87.97
2018-02-05T06:27:29.592Z,88.44
2018-02-05T06:28:10.198Z,87.97
2018-02-05T06:28:50.734Z,87.12
2018-02-05T06:29:31.216Z,87.3
2018-02-05T06:30:11.868Z,87.02
2018-02-05T06:30:52.415Z,87.21
2018-02-05T06:31:32.938Z,87.12
2018-02-05T06:32:13.473Z,86.93
2018-02-05T06:32:53.996Z,87.12
2018-02-05T06:33:34.595Z,87.3
2018-02-05T06:34:15.109Z,86.83
2018-02-05T06:34:55.739Z,86.93
2018-02-05T06:35:36.232Z,86.93
2018-02-05T06:36:16.827Z,86.74
2018-02-05T06:36:57.526Z,87.02
2018-02-05T06:37:38.122Z,87.97
2018-02-05T06:38:18.733Z,88.44
2018-02-05T06:38:59.464Z,88.48
2018-02-05T06:39:40.013Z,89.06
2018-02-05T06:40:20.574Z,91.33
2018-02-05T06:41:01.117Z,89.43
2018-02-05T06:41:41.633Z,88.58
2018-02-05T06:42:22.184Z,87.54
2018-02-05T06:43:02.741Z,86.78
2018-02-05T06:43:43.274Z,86.4
2018-02-05T06:44:23.849Z,87.54
2018-02-05T06:45:04.370Z,87.45
2018-02-05T06:45:44.870Z,86.4
2018-02-05T06:46:25.481Z,85.93
2018-02-05T06:47:06.054Z,86.02
2018-02-05T06:47:46.588Z,86.11
2018-02-05T06:48:27.142Z,86.3
2018-02-05T06:49:07.678Z,86.87
2018-02-05T06:49:48.194Z,86.49
2018-02-05T06:50:29.882Z,86.49
2018-02-05T06:51:09.377Z,85.93
2018-02-05T06:51:50.313Z,86.11
2018-02-05T06:52:31.110Z,86.02
2018-02-05T06:53:11.647Z,86.4
2018-02-05T06:53:52.232Z,86.74
2018-02-05T06:54:32.735Z,87.06
2018-02-05T06:55:13.259Z,87.73
2018-02-05T06:55:53.904Z,87.54
2018-02-05T06:56:35.090Z,86.93
2018-02-05T06:57:15.653Z,86.64
2018-02-05T06:57:56.198Z,86.3
2018-02-05T06:58:36.973Z,86.64
2018-02-05T06:59:17.520Z,86.35
2018-02-05T06:59:58.157Z,86.64
2018-02-05T07:00:38.661Z,86.55
2018-02-05T07:01:19.308Z,87.21
2018-02-05T07:01:59.927Z,87.06
2018-02-05T07:02:41.515Z,86.87
2018-02-05T07:03:22.112Z,87.21
2018-02-05T07:04:02.589Z,87.21
2018-02-05T07:04:43.163Z,87.16
2018-02-05T07:05:23.658Z,86.78
2018-02-05T07:06:04.444Z,87.92
2018-02-05T07:06:45.018Z,89.91
2018-02-05T07:07:25.531Z,90.29
2018-02-05T07:08:06.322Z,88.87
2018-02-05T07:08:46.778Z,87.45
2018-02-05T07:09:27.373Z,87.25
2018-02-05T07:10:07.986Z,87.45
2018-02-05T07:10:48.485Z,86.87
2018-02-05T07:11:29.289Z,86.87
2018-02-05T07:12:09.880Z,88.39
2018-02-05T07:12:50.427Z,95.31
2018-02-05T07:13:30.960Z,99.99
2018-02-05T07:14:12.414Z,99.99
2018-02-05T07:14:52.891Z,99.99
2018-02-05T07:15:33.418Z,99.99
2018-02-05T07:16:13.995Z,99.99
2018-02-05T07:16:55.259Z,99.99
2018-02-05T07:17:36.083Z,99.99
2018-02-05T07:18:16.695Z,99.99
2018-02-05T07:18:57.236Z,99.99
2018-02-05T07:19:38.101Z,99.99
2018-02-05T07:20:18.572Z,99.99
2018-02-05T07:20:59.106Z,99.99
2018-02-05T07:21:39.677Z,99.99
2018-02-05T07:22:20.179Z,99.99
2018-02-05T07:23:00.724Z,99.99
2018-02-05T07:23:41.356Z,99.99
2018-02-05T07:24:21.948Z,99.99
2018-02-05T07:25:02.451Z,99.99
2018-02-05T07:25:43.011Z,99.99
2018-02-05T07:26:23.571Z,99.99
2018-02-05T07:27:04.115Z,99.99
2018-02-05T07:27:44.677Z,99.99
2018-02-05T07:28:25.183Z,99.99
2018-02-05T07:29:05.815Z,99.99
2018-02-05T07:29:46.326Z,99.99
2018-02-05T07:30:26.831Z,99.99
2018-02-05T07:31:07.437Z,99.99
2018-02-05T07:31:47.978Z,99.99
2018-02-05T07:32:28.488Z,99.99
2018-02-05T07:33:09.017Z,99.99
2018-02-05T07:33:49.553Z,99.99
2018-02-05T07:34:30.096Z,99.99
2018-02-05T07:35:10.616Z,99.99
2018-02-05T07:35:51.170Z,99.99
2018-02-05T07:36:31.836Z,99.99
2018-02-05T07:37:12.543Z,99.99
2018-02-05T07:37:53.067Z,99.99
2018-02-05T07:38:33.640Z,98.73
2018-02-05T07:39:14.204Z,96.17
2018-02-05T07:39:54.747Z,94.74
2018-02-05T07:40:35.253Z,93.89
2018-02-05T07:41:15.824Z,93.23
2018-02-05T07:41:56.347Z,93.41
2018-02-05T07:42:36.866Z,92.09
2018-02-05T07:43:17.471Z,92.38
2018-02-05T07:43:58.015Z,91.9
2018-02-05T07:44:38.573Z,92.28
2018-02-05T07:45:19.068Z,91.05
2018-02-05T07:45:59.644Z,90.57
2018-02-05T07:46:40.295Z,91.05
2018-02-05T07:47:20.887Z,90.38
2018-02-05T07:48:01.405Z,89.91
2018-02-05T07:48:41.995Z,89.53
2018-02-05T07:49:22.512Z,88.96
2018-02-05T07:50:03.003Z,89.06
2018-02-05T07:50:43.574Z,89.15
2018-02-05T07:51:24.180Z,88.77
2018-02-05T07:52:04.764Z,89.06
2018-02-05T07:52:45.285Z,89.15
2018-02-05T07:53:25.862Z,90
2018-02-05T07:54:06.292Z,89.81
2018-02-05T07:54:46.863Z,89.81
2018-02-05T07:55:27.389Z,90.48
2018-02-05T07:56:08.008Z,89.72
2018-02-05T07:56:48.463Z,89.15
2018-02-05T07:57:29.017Z,88.87
2018-02-05T07:58:09.614Z,90
2018-02-05T07:58:50.270Z,89.43
2018-02-05T07:59:30.630Z,89.62
2018-02-05T08:00:11.175Z,90.67
2018-02-05T08:00:51.684Z,90.76
2018-02-05T08:01:32.262Z,92.57
2018-02-05T08:02:12.859Z,91.71
2018-02-05T08:02:53.370Z,91.61
2018-02-05T08:03:33.860Z,90.19
2018-02-05T08:04:14.398Z,90.1
2018-02-05T08:04:55.106Z,88.48
2018-02-05T08:05:35.584Z,88.01
2018-02-05T08:06:16.160Z,88.87
2018-02-05T08:06:56.680Z,89.34
2018-02-05T08:07:37.231Z,90.57
2018-02-05T08:08:17.773Z,98.25
2018-02-05T08:08:58.276Z,99.99
2018-02-05T08:09:38.823Z,99.99
2018-02-05T08:10:19.350Z,99.49
2018-02-05T08:10:59.988Z,99.99
2018-02-05T08:11:40.443Z,99.99
2018-02-05T08:12:21.018Z,99.99
2018-02-05T08:13:01.562Z,99.99
2018-02-05T08:13:42.121Z,99.99
2018-02-05T08:14:22.616Z,99.99
2018-02-05T08:15:03.184Z,99.99
2018-02-05T08:15:43.700Z,99.99
2018-02-05T08:16:24.254Z,99.99
2018-02-05T08:17:04.794Z,99.99
2018-02-05T08:17:45.438Z,99.99
2018-02-05T08:18:25.957Z,98.16
2018-02-05T08:19:06.517Z,95.79
2018-02-05T08:19:47.095Z,99.99
2018-02-05T08:20:27.686Z,99.99
2018-02-05T08:21:08.192Z,99.99
2018-02-05T08:21:48.690Z,99.99
2018-02-05T08:22:29.250Z,99.99
2018-02-05T08:23:09.802Z,99.99
2018-02-05T08:23:50.508Z,99.99
2018-02-05T08:24:31.086Z,99.99
2018-02-05T08:25:11.762Z,99.99
2018-02-05T08:25:52.337Z,99.99
2018-02-05T08:26:32.836Z,99.99
2018-02-05T08:27:13.417Z,99.99
2018-02-05T08:27:53.941Z,99.99
2018-02-05T08:28:34.533Z,99.99
2018-02-05T08:29:15.056Z,99.99
2018-02-05T08:29:55.635Z,99.99
2018-02-05T08:30:36.205Z,99.99
2018-02-05T08:31:16.753Z,99.26
2018-02-05T08:31:57.296Z,96.17
2018-02-05T08:32:37.943Z,93.13
2018-02-05T08:33:18.474Z,92.28
2018-02-05T08:33:59.023Z,91.42
2018-02-05T08:34:39.603Z,91.14
2018-02-05T08:35:20.199Z,91.9
2018-02-05T08:36:00.742Z,94.84
2018-02-05T08:36:41.346Z,99.99
2018-02-05T08:37:21.963Z,99.99
2018-02-05T08:38:02.483Z,99.99
2018-02-05T08:38:43.038Z,99.99
2018-02-05T08:39:23.611Z,99.99
2018-02-05T08:40:04.181Z,99.99
2018-02-05T08:40:44.832Z,99.73
2018-02-05T08:41:25.361Z,94.46
2018-02-05T08:42:05.847Z,94.08
2018-02-05T08:42:46.394Z,92.28
2018-02-05T08:43:26.992Z,91.05
2018-02-05T08:44:07.502Z,90.1
2018-02-05T08:44:48.038Z,89.43
2018-02-05T08:45:28.597Z,88.87
2018-02-05T08:46:09.138Z,88.29
2018-02-05T08:46:49.704Z,87.25
2018-02-05T08:47:30.304Z,86.87
2018-02-05T08:48:10.768Z,86.68
2018-02-05T08:48:51.775Z,86.68
2018-02-05T08:49:32.442Z,86.59
2018-02-05T08:50:12.959Z,86.49